Time;durP1;ratioP1;P1;durP2;ratioP2;P2;SDS_P1;SDS_P2;PMS_P1;PMS_P2;Temp;Humidity;BMP_temperature;BMP_pressure;BME280_temperature;BME280_humidity;BME280_pressure;Samples;Min_cycle;Max_cycle;Signal;HPM_P1;HPM_P2
2021/11/13 00:01:09;;;;;;;27.80;12.50;;;9.30;99.90;;;;;;5036614;28;20021;-76
2021/11/13 00:03:35;;;;;;;30.20;13.27;;;9.30;99.90;;;;;;5022966;28;20030;-76
2021/11/13 00:06:01;;;;;;;29.83;12.38;;;9.30;99.90;;;;;;5036660;28;20036;-76
2021/11/13 00:08:27;;;;;;;35.17;13.57;;;9.30;99.90;;;;;;5019088;28;20025;-77
2021/11/13 00:10:53;;;;;;;30.60;13.32;;;9.30;99.90;;;;;;5036440;28;20033;-76
2021/11/13 00:13:24;;;;;;;28.27;12.27;;;9.30;99.90;;;;;;5016599;28;20426;-76
2021/11/13 00:15:50;;;;;;;29.83;13.35;;;9.30;99.90;;;;;;5016541;28;20025;-76
2021/11/13 00:18:18;;;;;;;26.73;12.93;;;9.30;99.90;;;;;;5016719;28;20026;-76
2021/11/13 00:20:44;;;;;;;34.20;13.35;;;9.30;99.90;;;;;;5015472;28;20018;-76
2021/11/13 00:23:10;;;;;;;29.42;12.65;;;9.40;99.90;;;;;;5015245;28;20033;-76
2021/11/13 00:25:36;;;;;;;28.55;13.32;;;9.40;99.90;;;;;;5015339;28;20080;-76
2021/11/13 00:28:02;;;;;;;25.27;11.80;;;9.40;99.90;;;;;;5025441;28;20025;-77
2021/11/13 00:30:28;;;;;;;30.30;12.85;;;9.40;99.90;;;;;;5018047;28;20021;-77
2021/11/13 00:32:53;;;;;;;33.25;13.20;;;9.40;99.90;;;;;;5022533;28;20014;-77
2021/11/13 00:35:19;;;;;;;28.52;11.38;;;9.40;99.90;;;;;;5031622;28;20041;-77
2021/11/13 00:37:45;;;;;;;30.98;13.20;;;9.40;99.90;;;;;;5035435;28;20018;-77
2021/11/13 00:40:14;;;;;;;25.27;12.75;;;9.40;99.90;;;;;;5036691;28;20096;-77
2021/11/13 00:42:39;;;;;;;;;;;9.40;99.90;;;;;;5037037;28;20385;-77
2021/11/13 00:45:06;;;;;;;34.95;11.68;;;9.40;99.90;;;;;;5035070;28;19909;-75
2021/11/13 00:47:32;;;;;;;27.42;11.27;;;9.40;99.90;;;;;;5034917;28;20044;-75
2021/11/13 00:49:58;;;;;;;25.42;12.05;;;9.40;99.90;;;;;;5027756;28;20429;-75
2021/11/13 00:52:24;;;;;;;26.33;11.55;;;9.40;99.90;;;;;;5017649;28;20022;-76
2021/11/13 00:54:49;;;;;;;26.33;12.35;;;9.40;99.90;;;;;;5016331;28;20030;-76
2021/11/13 00:57:15;;;;;;;26.25;12.45;;;9.50;99.90;;;;;;5016003;28;20061;-76
2021/11/13 00:59:40;;;;;;;29.00;11.68;;;9.40;99.90;;;;;;5014554;28;20040;-76
2021/11/13 01:02:07;;;;;;;25.02;11.15;;;9.40;99.90;;;;;;5015595;28;20096;-75
2021/11/13 01:04:33;;;;;;;23.90;11.70;;;9.40;99.90;;;;;;5014506;28;20058;-76
2021/11/13 01:06:59;;;;;;;28.17;12.00;;;9.40;99.90;;;;;;5016063;28;20467;-77
2021/11/13 01:09:24;;;;;;;23.65;11.43;;;9.40;99.90;;;;;;5029405;28;20032;-75
2021/11/13 01:11:50;;;;;;;27.25;11.50;;;9.40;99.90;;;;;;5014379;28;20431;-75
2021/11/13 01:14:16;;;;;;;26.10;10.43;;;9.50;99.90;;;;;;5015341;28;20091;-75
2021/11/13 01:16:42;;;;;;;26.08;11.45;;;9.40;99.90;;;;;;5015819;28;20493;-75
2021/11/13 01:19:08;;;;;;;26.02;10.20;;;9.50;99.90;;;;;;5021302;28;20025;-75
2021/11/13 01:21:33;;;;;;;23.25;10.32;;;9.50;99.90;;;;;;5035108;28;20494;-76
2021/11/13 01:24:00;;;;;;;26.98;11.55;;;9.50;99.90;;;;;;5018251;28;20111;-75
2021/11/13 01:26:25;;;;;;;29.05;12.65;;;9.50;99.90;;;;;;5035305;28;20033;-75
2021/11/13 01:28:51;;;;;;;24.58;11.48;;;9.50;99.90;;;;;;5034951;28;20092;-75
2021/11/13 01:31:18;;;;;;;31.45;11.90;;;9.50;99.90;;;;;;5035214;28;20359;-75
2021/11/13 01:33:44;;;;;;;27.75;11.23;;;9.50;99.90;;;;;;5017265;28;20021;-76
2021/11/13 01:36:12;;;;;;;25.40;11.18;;;9.50;99.90;;;;;;5034777;28;20026;-76
2021/11/13 01:38:38;;;;;;;27.85;11.07;;;9.60;99.90;;;;;;5034833;28;20079;-76
2021/11/13 01:41:07;;;;;;;27.80;11.38;;;9.60;99.90;;;;;;5034104;28;20025;-76
2021/11/13 01:43:35;;;;;;;24.67;10.57;;;9.60;99.90;;;;;;5034700;28;20025;-76
2021/11/13 01:46:03;;;;;;;27.33;11.70;;;9.60;99.90;;;;;;5034485;28;20044;-76
2021/11/13 01:48:29;;;;;;;22.20;11.00;;;9.60;99.90;;;;;;5035847;28;20264;-77
2021/11/13 01:50:56;;;;;;;27.67;11.38;;;9.70;99.90;;;;;;5034736;28;20025;-78
2021/11/13 01:53:23;;;;;;;27.33;11.13;;;9.60;99.90;;;;;;5016884;28;20026;-78
2021/11/13 01:55:54;;;;;;;27.13;11.57;;;9.70;99.90;;;;;;5033159;28;20029;-78
2021/11/13 01:58:19;;;;;;;25.92;11.27;;;9.70;99.90;;;;;;5016844;28;20017;-78
2021/11/13 02:00:52;;;;;;;26.95;10.35;;;9.70;99.90;;;;;;5034487;28;20018;-77
2021/11/13 02:03:19;;;;;;;25.23;12.13;;;9.70;99.90;;;;;;5034471;28;20041;-76
2021/11/13 02:05:47;;;;;;;25.85;13.10;;;9.80;99.90;;;;;;5016548;28;20116;-76
2021/11/13 02:08:13;;;;;;;29.98;11.98;;;9.70;99.90;;;;;;5014040;28;20057;-77
2021/11/13 02:10:38;;;;;;;28.63;12.55;;;9.80;99.90;;;;;;5019234;28;20021;-77
2021/11/13 02:13:04;;;;;;;24.95;11.60;;;9.70;99.90;;;;;;5034523;28;20017;-77
2021/11/13 02:15:30;;;;;;;27.85;11.82;;;9.70;99.90;;;;;;5016311;28;20025;-77
2021/11/13 02:17:58;;;;;;;25.63;11.77;;;9.70;99.90;;;;;;5033855;28;20034;-77
2021/11/13 02:20:38;;;;;;;25.73;11.98;;;9.80;99.90;;;;;;5033166;28;20029;-77
2021/11/13 02:23:10;;;;;;;23.38;11.48;;;9.80;99.90;;;;;;5005088;28;20022;-76
2021/11/13 02:25:36;;;;;;;23.02;11.85;;;9.80;99.90;;;;;;5012921;28;20022;-76
2021/11/13 02:28:05;;;;;;;27.30;12.77;;;9.80;99.90;;;;;;5013246;28;20036;-76
2021/11/13 02:30:31;;;;;;;21.58;11.90;;;9.80;99.90;;;;;;5014131;28;20021;-75
2021/11/13 02:32:57;;;;;;;22.55;10.63;;;9.90;99.90;;;;;;5014425;28;20026;-75
2021/11/13 02:35:26;;;;;;;22.10;11.25;;;9.90;99.90;;;;;;5014115;28;20029;-75
2021/11/13 02:37:52;;;;;;;23.42;11.02;;;9.90;99.90;;;;;;5012762;28;20021;-76
2021/11/13 02:40:18;;;;;;;23.10;10.52;;;9.90;99.90;;;;;;5014211;28;20010;-78
2021/11/13 02:42:46;;;;;;;23.40;10.50;;;9.90;99.90;;;;;;5014627;28;20021;-77
2021/11/13 02:45:12;;;;;;;24.05;10.60;;;9.90;99.90;;;;;;5017440;28;20029;-76
2021/11/13 02:47:44;;;;;;;20.83;10.52;;;9.90;99.90;;;;;;5033232;28;20561;-77
2021/11/13 02:50:12;;;;;;;21.13;9.95;;;9.90;99.90;;;;;;5033599;28;20033;-78
2021/11/13 02:52:58;;;;;;;18.90;9.73;;;9.90;99.90;;;;;;5035051;28;20020;-76
2021/11/13 02:55:25;;;;;;;23.00;10.50;;;10.00;99.90;;;;;;5030107;28;20029;-76
2021/11/13 02:57:51;;;;;;;24.42;11.10;;;10.00;99.90;;;;;;5016767;28;20022;-76
2021/11/13 03:00:21;;;;;;;25.15;11.25;;;10.00;99.90;;;;;;5018626;28;20128;-76
2021/11/13 03:02:46;;;;;;;26.33;11.50;;;10.20;99.90;;;;;;5035681;28;20090;-76
2021/11/13 03:05:22;;;;;;;24.30;11.07;;;10.00;99.90;;;;;;5014329;28;20482;-76
2021/11/13 03:07:49;;;;;;;31.20;12.05;;;10.00;99.90;;;;;;5017088;28;20026;-77
2021/11/13 03:10:16;;;;;;;26.88;11.48;;;10.10;99.90;;;;;;5016393;28;20546;-77
2021/11/13 03:12:42;;;;;;;28.55;11.95;;;10.10;99.90;;;;;;5017624;28;20475;-76
2021/11/13 03:15:10;;;;;;;22.10;11.00;;;10.10;99.90;;;;;;5026524;28;20050;-76
2021/11/13 03:17:37;;;;;;;26.50;11.63;;;10.10;99.90;;;;;;5037328;28;20163;-76
2021/11/13 03:20:12;;;;;;;24.52;10.98;;;10.20;99.90;;;;;;5019458;28;20022;-76
2021/11/13 03:22:38;;;;;;;24.23;12.02;;;10.20;99.90;;;;;;5036290;28;20025;-76
2021/11/13 03:25:07;;;;;;;24.75;11.07;;;10.20;99.90;;;;;;5035438;28;20035;-76
2021/11/13 03:27:33;;;;;;;22.20;11.25;;;10.20;99.90;;;;;;5037160;28;20363;-76
2021/11/13 03:29:59;;;;;;;20.65;10.60;;;10.20;99.90;;;;;;5036935;28;20029;-76
2021/11/13 03:32:24;;;;;;;19.13;10.45;;;10.20;99.90;;;;;;5018738;28;20478;-76
2021/11/13 03:34:50;;;;;;;23.63;10.43;;;10.10;99.90;;;;;;5017357;28;20033;-76
2021/11/13 03:37:18;;;;;;;21.65;10.30;;;10.20;99.90;;;;;;5017286;28;20026;-76
2021/11/13 03:39:43;;;;;;;24.08;10.13;;;10.20;99.90;;;;;;5018454;28;20021;-76
2021/11/13 03:42:09;;;;;;;22.10;11.10;;;10.20;99.90;;;;;;5015864;28;20021;-77
2021/11/13 03:44:35;;;;;;;22.25;11.10;;;10.20;99.90;;;;;;5017365;28;20045;-78
2021/11/13 03:47:00;;;;;;;24.83;12.13;;;10.20;99.90;;;;;;5015865;28;20022;-77
2021/11/13 03:49:26;;;;;;;22.67;11.05;;;10.20;99.90;;;;;;5015943;28;20033;-76
2021/11/13 03:51:51;;;;;;;24.98;11.60;;;10.20;99.90;;;;;;5018581;28;20052;-76
2021/11/13 03:54:17;;;;;;;21.63;10.65;;;10.20;99.90;;;;;;5034562;28;20021;-76
2021/11/13 03:56:42;;;;;;;26.73;12.07;;;10.20;99.90;;;;;;5036347;28;20025;-76
2021/11/13 03:59:08;;;;;;;25.70;11.57;;;10.20;99.90;;;;;;5018620;28;20021;-76
2021/11/13 04:01:34;;;;;;;22.50;10.82;;;10.20;99.90;;;;;;5036293;28;20021;-77
2021/11/13 04:04:00;;;;;;;27.48;11.30;;;10.20;99.90;;;;;;5036083;28;20033;-77
2021/11/13 04:06:26;;;;;;;24.75;11.32;;;10.20;99.90;;;;;;5001888;28;20042;-77
2021/11/13 04:08:51;;;;;;;22.45;10.15;;;10.20;99.90;;;;;;5016657;28;20403;-77
2021/11/13 04:11:17;;;;;;;22.98;11.18;;;10.20;99.90;;;;;;5016910;28;20034;-78
2021/11/13 04:13:43;;;;;;;22.48;11.52;;;10.20;99.90;;;;;;5016844;28;20442;-78
2021/11/13 04:16:09;;;;;;;26.38;10.77;;;10.20;99.90;;;;;;5035346;28;20032;-78
2021/11/13 04:18:34;;;;;;;24.90;11.15;;;10.20;99.90;;;;;;5017389;28;20021;-78
2021/11/13 04:21:01;;;;;;;20.75;10.70;;;10.20;99.90;;;;;;5036481;28;20036;-77
2021/11/13 04:23:26;;;;;;;26.08;11.40;;;10.20;99.90;;;;;;5036716;28;20068;-77
2021/11/13 04:25:52;;;;;;;24.40;10.27;;;10.20;99.90;;;;;;5017018;28;20049;-77
2021/11/13 04:28:17;;;;;;;21.98;10.02;;;10.20;99.90;;;;;;5018215;28;20064;-77
2021/11/13 04:30:43;;;;;;;23.48;10.35;;;10.30;99.90;;;;;;5017980;28;20022;-77
2021/11/13 04:33:08;;;;;;;19.63;9.52;;;10.30;99.90;;;;;;5035689;28;20029;-77
2021/11/13 04:35:46;;;;;;;21.30;9.85;;;10.30;99.90;;;;;;5035235;28;20029;-77
2021/11/13 04:38:12;;;;;;;17.55;9.30;;;10.30;99.90;;;;;;5018700;28;20017;-76
2021/11/13 04:40:38;;;;;;;17.58;9.60;;;10.30;99.90;;;;;;5036545;28;20028;-76
2021/11/13 04:43:03;;;;;;;17.88;8.43;;;10.30;99.90;;;;;;5019056;28;20043;-76
2021/11/13 04:45:29;;;;;;;23.13;10.27;;;10.30;99.90;;;;;;5035823;28;20485;-76
2021/11/13 04:47:55;;;;;;;18.33;8.90;;;10.30;99.90;;;;;;5035514;28;20478;-77
2021/11/13 04:50:24;;;;;;;19.20;9.23;;;10.40;99.90;;;;;;5017323;28;20053;-76
2021/11/13 04:52:50;;;;;;;18.17;7.60;;;10.40;99.90;;;;;;5018883;28;20052;-76
2021/11/13 04:55:17;;;;;;;13.43;6.47;;;10.50;99.90;;;;;;5035661;28;20116;-77
2021/11/13 04:57:43;;;;;;;16.13;7.10;;;10.50;99.90;;;;;;5035616;28;20025;-75
2021/11/13 05:00:12;;;;;;;15.57;6.70;;;10.50;99.90;;;;;;5017292;28;20043;-75
2021/11/13 05:02:38;;;;;;;;;;;10.50;99.90;;;;;;5035485;28;20397;-76
2021/11/13 05:05:04;;;;;;;14.07;6.70;;;10.50;99.90;;;;;;5034561;28;19908;-77
2021/11/13 05:07:29;;;;;;;15.80;6.75;;;10.50;99.90;;;;;;5035175;28;20126;-77
2021/11/13 05:09:55;;;;;;;15.43;6.72;;;10.50;99.90;;;;;;5017667;28;20138;-77
2021/11/13 05:12:22;;;;;;;11.27;5.78;;;10.40;99.90;;;;;;5017445;28;20505;-77
2021/11/13 05:14:47;;;;;;;12.32;5.60;;;10.40;99.90;;;;;;5025805;28;20022;-77
2021/11/13 05:17:13;;;;;;;13.35;6.03;;;10.40;99.90;;;;;;5015557;28;20033;-77
2021/11/13 05:19:40;;;;;;;16.52;6.63;;;10.40;99.90;;;;;;5022924;28;20484;-76
2021/11/13 05:22:07;;;;;;;11.00;5.82;;;10.40;99.90;;;;;;5034863;28;20100;-77
2021/11/13 05:24:33;;;;;;;11.77;6.00;;;10.40;99.90;;;;;;5060010;22;20510;-76
2021/11/13 05:26:59;;;;;;;10.88;6.13;;;10.40;99.90;;;;;;5054716;28;20021;-76
2021/11/13 05:29:24;;;;;;;12.05;5.97;;;10.40;99.90;;;;;;5064079;28;20020;-76
2021/11/13 05:31:50;;;;;;;13.85;6.15;;;10.40;99.90;;;;;;5066250;28;20032;-76
2021/11/13 05:34:15;;;;;;;13.43;6.22;;;10.40;99.90;;;;;;5056316;28;20048;-76
2021/11/13 05:36:41;;;;;;;19.27;8.05;;;10.40;99.90;;;;;;5048111;28;20027;-76
2021/11/13 05:39:07;;;;;;;11.65;6.63;;;10.50;99.90;;;;;;5057552;28;20066;-76
2021/11/13 05:41:34;;;;;;;15.57;6.15;;;10.40;99.90;;;;;;5047689;28;20025;-76
2021/11/13 05:44:00;;;;;;;13.32;6.15;;;10.40;99.90;;;;;;5040663;28;20029;-76
2021/11/13 05:46:25;;;;;;;11.52;5.65;;;10.40;99.90;;;;;;5037988;28;20032;-76
2021/11/13 05:48:51;;;;;;;14.00;6.28;;;10.40;99.90;;;;;;5036843;28;20049;-76
2021/11/13 05:51:17;;;;;;;10.85;5.78;;;10.40;99.90;;;;;;5036880;28;20025;-76
2021/11/13 05:53:43;;;;;;;13.68;6.38;;;10.50;99.90;;;;;;5036933;28;20119;-76
2021/11/13 05:56:08;;;;;;;15.05;6.85;;;10.40;99.90;;;;;;5052441;28;20021;-76
2021/11/13 05:58:34;;;;;;;17.13;6.30;;;10.50;99.90;;;;;;5056648;28;20009;-76
2021/11/13 06:01:00;;;;;;;16.55;7.03;;;10.40;99.90;;;;;;5054315;28;20032;-76
2021/11/13 06:03:25;;;;;;;14.20;7.32;;;10.50;99.90;;;;;;5042831;28;20438;-76
2021/11/13 06:05:51;;;;;;;15.68;6.72;;;10.50;99.90;;;;;;5054526;28;20036;-76
2021/11/13 06:08:16;;;;;;;14.02;6.95;;;10.50;99.90;;;;;;5036592;28;20029;-76
2021/11/13 06:10:42;;;;;;;13.98;7.20;;;10.50;99.90;;;;;;5036401;28;20020;-76
2021/11/13 06:13:07;;;;;;;13.43;7.07;;;10.50;99.90;;;;;;5036530;28;20025;-76
2021/11/13 06:15:33;;;;;;;14.60;7.05;;;10.50;99.90;;;;;;5052392;28;20020;-76
2021/11/13 06:17:59;;;;;;;14.30;7.47;;;10.50;99.90;;;;;;5073577;28;20415;-76
2021/11/13 06:20:25;;;;;;;15.10;7.03;;;10.50;99.90;;;;;;5055657;28;20020;-76
2021/11/13 06:22:50;;;;;;;17.83;7.68;;;10.50;99.90;;;;;;5073627;28;20012;-76
2021/11/13 06:25:16;;;;;;;19.90;7.63;;;10.50;99.90;;;;;;5041077;28;20033;-76
2021/11/13 06:27:42;;;;;;;15.82;7.13;;;10.50;99.90;;;;;;5053585;28;20033;-76
2021/11/13 06:30:11;;;;;;;17.45;8.50;;;10.50;99.90;;;;;;5053224;28;20029;-76
2021/11/13 06:32:37;;;;;;;17.17;8.00;;;10.40;99.90;;;;;;5053293;28;20024;-76
2021/11/13 06:35:07;;;;;;;19.63;8.43;;;10.50;99.90;;;;;;5061178;28;20426;-76
2021/11/13 06:37:33;;;;;;;17.45;8.27;;;10.50;99.90;;;;;;5035847;28;20491;-76
2021/11/13 06:39:59;;;;;;;18.60;8.63;;;10.50;99.90;;;;;;5064225;28;20078;-76
2021/11/13 06:42:26;;;;;;;23.05;10.00;;;10.50;99.90;;;;;;5054477;28;20046;-76
2021/11/13 06:44:51;;;;;;;17.63;8.20;;;10.50;99.90;;;;;;5064396;28;20021;-76
2021/11/13 06:47:17;;;;;;;23.88;8.65;;;10.50;99.90;;;;;;5040430;28;20527;-77
2021/11/13 06:49:42;;;;;;;20.52;9.02;;;10.50;99.90;;;;;;5048389;28;20075;-78
2021/11/13 06:52:08;;;;;;;16.30;8.75;;;10.50;99.90;;;;;;5071805;28;20065;-79
2021/11/13 06:54:34;;;;;;;19.58;9.55;;;10.50;99.90;;;;;;5060326;28;20021;-78
2021/11/13 06:57:00;;;;;;;16.95;7.82;;;10.50;99.90;;;;;;5078523;28;20064;-78
2021/11/13 06:59:25;;;;;;;21.75;9.60;;;10.50;99.90;;;;;;5074237;28;20032;-80
2021/11/13 07:01:51;;;;;;;17.45;8.65;;;10.50;99.90;;;;;;5071114;28;20021;-80
2021/11/13 07:04:16;;;;;;;18.23;8.57;;;10.50;99.90;;;;;;5055079;28;20021;-77
2021/11/13 07:06:42;;;;;;;17.35;8.48;;;10.50;99.90;;;;;;5053855;28;20513;-77
2021/11/13 07:09:07;;;;;;;18.63;9.50;;;10.50;99.90;;;;;;5035640;28;20540;-75
2021/11/13 07:11:33;;;;;;;20.38;9.23;;;10.50;99.90;;;;;;5060641;28;20025;-77
2021/11/13 07:13:59;;;;;;;21.40;8.68;;;10.50;99.90;;;;;;5063407;28;20029;-77
2021/11/13 07:16:24;;;;;;;24.20;9.85;;;10.50;99.90;;;;;;5055735;28;20044;-77
2021/11/13 07:18:50;;;;;;;19.08;8.40;;;10.60;99.90;;;;;;5073643;28;20029;-76
2021/11/13 07:21:15;;;;;;;17.45;8.88;;;10.50;99.90;;;;;;5073969;28;20028;-75
2021/11/13 07:23:41;;;;;;;17.80;8.35;;;10.50;99.90;;;;;;5067582;28;20021;-77
2021/11/13 07:26:07;;;;;;;21.65;9.10;;;10.50;99.90;;;;;;5072261;28;20052;-77
2021/11/13 07:28:41;;;;;;;16.80;8.85;;;10.50;99.90;;;;;;5052835;28;20036;-77
2021/11/13 07:31:09;;;;;;;21.45;8.90;;;10.50;99.90;;;;;;5055575;28;20094;-77
2021/11/13 07:33:38;;;;;;;22.20;9.45;;;10.50;99.90;;;;;;5073035;28;20389;-75
2021/11/13 07:36:04;;;;;;;20.35;9.73;;;10.50;99.90;;;;;;5056763;28;20025;-75
2021/11/13 07:38:29;;;;;;;18.55;8.05;;;10.60;99.90;;;;;;5072612;28;20496;-75
2021/11/13 07:40:55;;;;;;;18.17;8.57;;;10.50;99.90;;;;;;5073026;28;20090;-75
2021/11/13 07:43:20;;;;;;;15.75;6.93;;;10.60;99.90;;;;;;5073342;28;20024;-75
2021/11/13 07:45:46;;;;;;;17.02;7.55;;;10.60;99.90;;;;;;5051997;28;20035;-77
2021/11/13 07:48:12;;;;;;;17.98;8.07;;;10.60;99.90;;;;;;5054793;28;20033;-76
2021/11/13 07:50:38;;;;;;;17.13;7.82;;;10.60;99.90;;;;;;5057799;28;20033;-76
2021/11/13 07:53:05;;;;;;;15.20;6.82;;;10.60;99.90;;;;;;5035369;28;20021;-76
2021/11/13 07:55:33;;;;;;;16.13;7.72;;;10.60;99.90;;;;;;5056928;28;20111;-78
2021/11/13 07:57:58;;;;;;;12.25;6.63;;;10.70;99.90;;;;;;5038548;28;20064;-76
2021/11/13 08:00:26;;;;;;;14.93;6.72;;;10.70;99.90;;;;;;5057880;28;20025;-78
2021/11/13 08:02:52;;;;;;;13.63;6.68;;;10.70;99.90;;;;;;5042164;28;20020;-80
2021/11/13 08:05:18;;;;;;;16.83;7.30;;;10.80;99.90;;;;;;5050353;28;20051;-79
2021/11/13 08:07:45;;;;;;;13.13;6.93;;;10.80;99.90;;;;;;5077606;28;20024;-77
2021/11/13 08:10:12;;;;;;;16.70;7.05;;;10.80;99.90;;;;;;5076288;28;20044;-77
2021/11/13 08:12:39;;;;;;;19.95;7.10;;;10.90;99.90;;;;;;5077435;28;20024;-77
2021/11/13 08:15:06;;;;;;;13.50;6.32;;;10.90;99.90;;;;;;5075036;28;20025;-77
2021/11/13 08:17:31;;;;;;;13.73;6.45;;;10.90;99.90;;;;;;5064055;28;20029;-79
2021/11/13 08:19:57;;;;;;;14.15;6.35;;;10.90;99.90;;;;;;5064598;28;20062;-78
2021/11/13 08:22:22;;;;;;;12.88;6.05;;;11.00;99.90;;;;;;5079551;28;20028;-79
2021/11/13 08:24:48;;;;;;;13.05;6.07;;;11.00;99.90;;;;;;5074739;28;20493;-78
2021/11/13 08:27:14;;;;;;;12.85;5.80;;;11.00;99.90;;;;;;5044391;28;20020;-78
2021/11/13 08:29:40;;;;;;;12.70;5.38;;;11.00;99.90;;;;;;5043855;28;20025;-78
2021/11/13 08:32:06;;;;;;;10.70;5.60;;;11.10;99.90;;;;;;5066450;28;20111;-78
2021/11/13 08:34:33;;;;;;;13.93;5.72;;;11.10;99.90;;;;;;5064187;28;20119;-78
2021/11/13 08:36:59;;;;;;;10.80;4.88;;;11.10;99.90;;;;;;5064318;28;20021;-78
2021/11/13 08:39:25;;;;;;;9.77;4.68;;;11.20;99.90;;;;;;5082074;28;20051;-78
2021/11/13 08:41:51;;;;;;;9.80;4.32;;;11.30;99.90;;;;;;5080942;28;20021;-80
2021/11/13 08:44:17;;;;;;;12.15;5.47;;;11.30;99.90;;;;;;5061493;28;20036;-79
2021/11/13 08:46:43;;;;;;;12.90;4.97;;;11.30;99.90;;;;;;5064227;28;20032;-80
2021/11/13 08:49:09;;;;;;;16.42;4.97;;;11.30;99.90;;;;;;5078164;28;20726;-76
2021/11/13 08:51:34;;;;;;;11.20;4.88;;;11.40;99.90;;;;;;5037434;28;20021;-76
2021/11/13 08:54:01;;;;;;;12.25;3.78;;;11.40;99.90;;;;;;5056322;28;20493;-77
2021/11/13 08:56:29;;;;;;;10.60;3.90;;;11.40;99.90;;;;;;5057225;28;20056;-76
2021/11/13 08:58:57;;;;;;;8.45;4.13;;;11.50;99.90;;;;;;5075086;28;20020;-77
2021/11/13 09:01:25;;;;;;;9.60;3.97;;;11.50;99.90;;;;;;5057358;28;20021;-76
2021/11/13 09:03:53;;;;;;;8.15;3.75;;;11.60;99.90;;;;;;5053986;28;20028;-76
2021/11/13 09:06:22;;;;;;;7.90;3.63;;;11.60;99.90;;;;;;5054614;28;20021;-76
2021/11/13 09:08:49;;;;;;;5.93;3.03;;;11.70;99.90;;;;;;5054908;28;20036;-76
2021/11/13 09:11:19;;;;;;;9.65;3.78;;;11.70;99.90;;;;;;5057144;28;20505;-77
2021/11/13 09:13:45;;;;;;;6.93;3.33;;;11.80;99.90;;;;;;5054754;28;20162;-77
2021/11/13 09:16:11;;;;;;;8.60;3.95;;;11.80;99.90;;;;;;5074153;28;20571;-77
2021/11/13 09:18:38;;;;;;;9.35;3.90;;;11.80;99.90;;;;;;5047772;28;20116;-79
2021/11/13 09:21:08;;;;;;;13.30;3.15;;;11.80;99.90;;;;;;5050562;28;20024;-79
2021/11/13 09:23:35;;;;;;;11.90;4.03;;;11.80;99.90;;;;;;5078366;28;20028;-79
2021/11/13 09:26:02;;;;;;;8.55;3.20;;;11.90;99.90;;;;;;5060245;28;20056;-79
2021/11/13 09:28:28;;;;;;;9.43;3.20;;;11.90;99.90;;;;;;5063922;28;20096;-76
2021/11/13 09:30:54;;;;;;;11.48;3.00;;;12.00;99.90;;;;;;5073416;28;20477;-76
2021/11/13 09:33:20;;;;;;;7.50;3.17;;;12.00;99.90;;;;;;5057147;28;20031;-77
2021/11/13 09:35:46;;;;;;;10.98;3.55;;;12.00;99.90;;;;;;5060217;28;20052;-77
2021/11/13 09:38:12;;;;;;;11.25;2.63;;;12.10;99.90;;;;;;5054962;28;20096;-77
2021/11/13 09:40:38;;;;;;;8.43;3.13;;;12.30;99.90;;;;;;5037502;28;20021;-77
2021/11/13 09:43:06;;;;;;;6.00;2.20;;;12.20;99.90;;;;;;5054843;28;20032;-77
2021/11/13 09:45:32;;;;;;;7.30;2.70;;;12.30;99.90;;;;;;5044999;28;20028;-77
2021/11/13 09:48:00;;;;;;;5.93;2.67;;;12.20;99.90;;;;;;5073385;28;20427;-78
2021/11/13 09:50:29;;;;;;;11.60;2.47;;;12.20;99.90;;;;;;5052522;28;20024;-77
2021/11/13 09:52:55;;;;;;;6.63;3.05;;;12.20;99.90;;;;;;5067408;28;20115;-77
2021/11/13 09:55:22;;;;;;;4.65;2.15;;;12.30;99.90;;;;;;5074127;28;20497;-77
2021/11/13 09:57:48;;;;;;;11.27;2.58;;;12.20;99.90;;;;;;5056156;28;20388;-78
2021/11/13 10:00:19;;;;;;;6.32;2.10;;;12.20;99.90;;;;;;5073841;28;20028;-77
2021/11/13 10:02:45;;;;;;;7.57;2.58;;;12.20;99.90;;;;;;5053172;28;20117;-77
2021/11/13 10:05:11;;;;;;;4.53;2.17;;;12.20;99.90;;;;;;5051352;28;20064;-77
2021/11/13 10:07:38;;;;;;;10.50;2.25;;;12.30;99.90;;;;;;5055014;28;20032;-77
2021/11/13 10:10:07;;;;;;;5.63;1.95;;;12.30;99.90;;;;;;5066964;28;20484;-77
2021/11/13 10:12:35;;;;;;;10.73;2.50;;;12.30;99.90;;;;;;5072414;28;20031;-77
2021/11/13 10:15:21;;;;;;;10.85;2.30;;;12.40;99.90;;;;;;5073489;28;20020;-78
2021/11/13 10:18:06;;;;;;;5.78;2.28;;;12.50;99.90;;;;;;5054651;28;20048;-78
2021/11/13 10:20:32;;;;;;;4.43;2.45;;;12.50;99.90;;;;;;5040205;28;20021;-77
2021/11/13 10:22:58;;;;;;;5.07;1.58;;;12.60;99.90;;;;;;5048636;28;20016;-77
2021/11/13 10:25:23;;;;;;;5.45;0.98;;;12.70;99.90;;;;;;5073364;28;20481;-77
2021/11/13 10:28:15;;;;;;;3.80;1.52;;;12.80;99.90;;;;;;5073812;28;20039;-78
2021/11/13 10:30:42;;;;;;;10.93;2.00;;;12.70;99.90;;;;;;5058001;28;20033;-78
2021/11/13 10:33:08;;;;;;;3.00;1.02;;;12.70;99.90;;;;;;5037524;28;20490;-78
2021/11/13 10:35:45;;;;;;;4.65;1.60;;;12.70;99.90;;;;;;5056484;28;20037;-77
2021/11/13 10:38:16;;;;;;;5.10;1.98;;;12.70;99.90;;;;;;5059616;28;20013;-78
2021/11/13 10:40:57;;;;;;;7.57;2.78;;;12.60;99.90;;;;;;5060656;28;20026;-78
2021/11/13 10:43:42;;;;;;;4.43;1.45;;;12.70;99.90;;;;;;5038336;28;20132;-79
2021/11/13 10:46:09;;;;;;;6.95;1.42;;;12.60;99.90;;;;;;5057183;28;20024;-79
2021/11/13 10:48:38;;;;;;;5.22;1.67;;;12.60;99.90;;;;;;5056656;28;20021;-78
2021/11/13 10:51:07;;;;;;;5.35;1.38;;;12.50;99.90;;;;;;5072860;28;20024;-76
2021/11/13 10:53:33;;;;;;;6.50;2.03;;;12.50;99.90;;;;;;5054954;28;20342;-76
2021/11/13 10:56:04;;;;;;;5.07;1.48;;;12.50;99.90;;;;;;5054489;28;20090;-76
2021/11/13 10:58:31;;;;;;;5.95;1.40;;;12.50;99.90;;;;;;5072989;28;20056;-76
2021/11/13 11:01:03;;;;;;;9.75;2.63;;;12.50;99.90;;;;;;5072969;28;20107;-76
2021/11/13 11:03:33;;;;;;;7.07;1.80;;;12.50;99.90;;;;;;5073282;28;20442;-76
2021/11/13 11:05:59;;;;;;;4.45;1.67;;;12.40;99.90;;;;;;5069979;28;20025;-76
2021/11/13 11:08:36;;;;;;;7.68;2.22;;;12.50;99.90;;;;;;5072798;28;20027;-76
2021/11/13 11:11:24;;;;;;;5.63;2.00;;;12.40;99.90;;;;;;5072825;28;20051;-76
2021/11/13 11:13:54;;;;;;;5.65;1.30;;;12.40;99.90;;;;;;5054693;28;20442;-76
2021/11/13 11:16:25;;;;;;;8.88;2.03;;;12.40;99.90;;;;;;5042117;28;20087;-76
2021/11/13 11:18:58;;;;;;;4.13;1.95;;;12.30;99.90;;;;;;5053149;28;20028;-77
2021/11/13 11:21:54;;;;;;;8.10;1.10;;;12.30;99.90;;;;;;5053338;28;20025;-77
2021/11/13 11:24:21;;;;;;;3.67;1.65;;;12.30;99.90;;;;;;5036469;28;20029;-79
2021/11/13 11:26:54;;;;;;;3.00;1.10;;;12.30;99.90;;;;;;5054972;28;20032;-79
2021/11/13 11:29:20;;;;;;;6.53;1.10;;;12.20;99.90;;;;;;5057890;28;20442;-78
2021/11/13 11:31:51;;;;;;;6.43;1.42;;;12.20;99.90;;;;;;5059221;28;20060;-78
2021/11/13 11:34:28;;;;;;;10.43;2.22;;;12.30;99.90;;;;;;5071093;28;20028;-78
2021/11/13 11:36:57;;;;;;;5.13;1.55;;;12.50;99.90;;;;;;5059114;28;20153;-77
2021/11/13 11:39:24;;;;;;;;;;;12.80;99.90;;;;;;5059224;28;20511;-77
2021/11/13 11:41:51;;;;;;;7.72;1.40;;;13.10;99.90;;;;;;5059829;28;20293;-78
2021/11/13 11:44:18;;;;;;;6.13;0.90;;;13.50;99.90;;;;;;5059112;28;20024;-78
2021/11/13 11:46:44;;;;;;;1.83;1.08;;;13.90;99.90;;;;;;5076998;28;20477;-78
2021/11/13 11:49:11;;;;;;;4.03;0.52;;;14.10;99.90;;;;;;5076844;28;20095;-78
2021/11/13 11:51:39;;;;;;;4.35;0.70;;;14.20;99.90;;;;;;5076811;28;20017;-78
2021/11/13 11:54:06;;;;;;;4.50;0.85;;;14.30;99.90;;;;;;5077087;28;20032;-77
2021/11/13 11:56:33;;;;;;;6.28;0.70;;;14.30;99.90;;;;;;5058891;28;20035;-77
2021/11/13 11:59:01;;;;;;;5.50;0.98;;;14.20;99.90;;;;;;5076986;28;20029;-77
2021/11/13 12:01:34;;;;;;;3.88;1.48;;;14.10;99.90;;;;;;5059004;28;20560;-78
2021/11/13 12:04:18;;;;;;;9.43;1.20;;;14.00;99.90;;;;;;5076876;28;20056;-78
2021/11/13 12:06:53;;;;;;;6.25;1.23;;;13.80;99.90;;;;;;5058566;28;20074;-78
2021/11/13 12:09:20;;;;;;;3.72;1.15;;;13.60;99.90;;;;;;5058571;28;20021;-78
2021/11/13 12:11:47;;;;;;;4.72;0.77;;;13.50;99.90;;;;;;5058404;28;20016;-78
2021/11/13 12:14:35;;;;;;;3.13;1.20;;;13.40;99.90;;;;;;5058494;28;20051;-78
2021/11/13 12:17:30;;;;;;;2.22;0.60;;;13.30;99.90;;;;;;5077422;28;20028;-82
2021/11/13 12:20:05;;;;;;;2.83;0.47;;;13.20;99.90;;;;;;5058835;28;20370;-78
2021/11/13 12:22:34;;;;;;;4.60;0.95;;;13.20;99.90;;;;;;5077009;28;20512;-79
2021/11/13 12:25:30;;;;;;;5.78;1.30;;;13.20;99.90;;;;;;5058962;28;20048;-78
2021/11/13 12:28:07;;;;;;;5.63;2.10;;;13.30;99.90;;;;;;5059023;28;20025;-78
2021/11/13 12:30:46;;;;;;;2.85;1.10;;;13.40;99.90;;;;;;5076722;28;20064;-79
2021/11/13 12:33:24;;;;;;;;;;;13.50;99.90;;;;;;5059906;28;20017;-78
2021/11/13 12:36:16;;;;;;;4.20;1.13;;;13.60;99.90;;;;;;5059266;28;20258;-78
2021/11/13 12:38:55;;;;;;;6.45;0.93;;;13.60;99.90;;;;;;5058924;28;20020;-77
2021/11/13 12:41:24;;;;;;;7.22;1.35;;;13.50;99.90;;;;;;5076328;28;20473;-78